Terminal Aerodrome Forecast
Issued by NWS Quad Cities IA IL

Home | Current Version | Previous Version | Graphics & Text | Print | Product List | Glossary On
Versions: 1 2 3 4 5 6 7 8 9 10 11 12 13 14 15 16 17 18 19 20 21
000
FTUS43 KDVN 070551 AAA
TAFDBQ
TAF AMD
KDBQ 070551Z 0706/0806 02012G20KT 4SM HZ SCT019 OVC200
     FM070700 36011KT 3SM HZ SCT025
      TEMPO 0707/0711 2SM HZ
     FM071100 32013KT 5SM BR BKN015
     FM071400 01008KT P6SM SCT030=

USA.gov is the U.S. government's official web portal to all federal, state and local government web resources and services.